Cfl Performer — PHLY — position and weather

sailwx.info

Track history (hours):
 
Tides and Currents Weather Stations Pressure Air Temp Water Temp Dewpoint Dewpoint Depression Visibility Wind Speed Wind Dir Waves Ship Positions

Cfl Performer

Last reported at 2015-Mar-31 12:20 UTC. Time now 2015-Mar-31 12:38 UTC.
Position N 51°03' E 002°21'.

Length 117 m; draft 3.2 m.

Type: Cargo ship. MMSI: 244989000.

Date/timePositionNaut miles runAvg speedWind from/ knotsBaromVisibWave heightAir tempDewpointWater temp
2015-Mar-31 12:20N 51°03' E 002°21'0 0.0
2015-Mar-31 11:07N 51°03' E 002°21'0 0.0
2015-Mar-31 10:28N 51°03' E 002°21'0 0.0
2015-Mar-31 09:22N 51°03' E 002°21'0 0.0
2015-Mar-31 08:31N 51°03' E 002°21'0 0.0
2015-Mar-31 07:31N 51°03' E 002°21'0 0.0
2015-Mar-31 06:25N 51°03' E 002°21'0 0.0
2015-Mar-31 05:31N 51°03' E 002°21'0 0.0
2015-Mar-31 04:28N 51°03' E 002°21'0 0.0
2015-Mar-31 03:22N 51°03' E 002°21'0 0.0
2015-Mar-31 02:31N 51°03' E 002°21'0 0.0
2015-Mar-31 01:28N 51°03' E 002°21'0 0.0
2015-Mar-31 00:25N 51°03' E 002°21'0 0.0
2015-Mar-30 23:28N 51°03' E 002°21'0 0.0
2015-Mar-30 22:32N 51°03' E 002°21'0 0.0
2015-Mar-30 21:25N 51°03' E 002°21'0 0.0
2015-Mar-30 20:31N 51°03' E 002°21'0 0.0
2015-Mar-30 19:25N 51°03' E 002°21'0 0.0
2015-Mar-30 18:22N 51°03' E 002°21'0 0.0
2015-Mar-30 17:28N 51°03' E 002°21'0 0.0
2015-Mar-30 16:32N 51°03' E 002°21'0 0.0
2015-Mar-30 15:28N 51°03' E 002°21'0 0.0
2015-Mar-30 14:31N 51°03' E 002°21'0 0.0
2015-Mar-30 13:25N 51°03' E 002°21'0 0.0
2015-Mar-30 12:13N 51°03' E 002°21'0 0.0
2015-Mar-30 11:31N 51°03' E 002°21'0 0.0
2015-Mar-30 10:31N 51°03' E 002°21'0 0.0
2015-Mar-30 09:31N 51°03' E 002°21'0 0.0
2015-Mar-30 08:25N 51°03' E 002°21'0 0.0
2015-Mar-30 07:25N 51°03' E 002°21'0 0.0
2015-Mar-30 06:25N 51°03' E 002°21'0 0.0
2015-Mar-30 05:31N 51°03' E 002°21'0 0.0
2015-Mar-30 04:20N 51°03' E 002°21'0 0.0
2015-Mar-30 03:28N 51°03' E 002°21'0 0.0
2015-Mar-30 02:13N 51°03' E 002°21'0 0.0
2015-Mar-30 01:25N 51°03' E 002°21'0 0.0
2015-Mar-30 00:31N 51°03' E 002°21'0 0.0
2015-Mar-29 22:28N 51°03' E 002°21'0 0.0
2015-Mar-29 20:31N 51°03' E 002°21'0 0.0
2015-Mar-29 19:31N 51°03' E 002°21'0 0.0
2015-Mar-29 18:19N 51°03' E 002°21'0 0.0
2015-Mar-29 17:31N 51°03' E 002°21'0 0.0
2015-Mar-29 16:31N 51°03' E 002°21'0 0.3
2015-Mar-29 15:32N 51°03' E 002°21'1 1.0
2015-Mar-29 14:33N 51°04' E 002°21'1211.5
2015-Mar-29 13:33N 51°03' E 002°03'1010.4
2015-Mar-29 12:33N 51°02' E 001°46'7 6.9
2015-Mar-29 11:34N 50°59' E 001°37'8 8.5
2015-Mar-29 10:33N 50°52' E 001°28'77 9.6
2015-Mar-29 02:28N 49°52' E 000°11'1213.3
2015-Mar-29 01:33N 49°42' E 000°01'1212.2
2015-Mar-29 00:33N 49°31' W 000°07'9 9.1
2015-Mar-28 23:33N 49°26' E 000°05'1312.9
2015-Mar-28 22:33N 49°27' E 000°24'1010.2
2015-Mar-28 21:34N 49°28' E 000°40'10 5.1
2015-Mar-28 19:32N 49°28' E 000°56'0 0.0
2015-Mar-28 04:19N 49°28' E 000°56'5 3.8
2015-Mar-28 03:05N 49°27' E 000°49'6 6.9
2015-Mar-28 02:11N 49°29' E 000°40'5 7.9
2015-Mar-28 01:33N 49°28' E 000°33'9 9.0
2015-Mar-28 00:33N 49°26' E 000°19'1110.8
2015-Mar-27 23:33N 49°27' E 000°03'6 5.7
2015-Mar-27 22:32N 49°29' W 000°06'0 0.1
2015-Mar-27 21:32N 49°28' W 000°06'0 0.0
2015-Mar-27 20:32N 49°28' W 000°06'0 0.0
2015-Mar-27 19:32N 49°28' W 000°06'0 0.0
2015-Mar-27 18:32N 49°28' W 000°06'0 0.1
2015-Mar-27 17:32N 49°28' W 000°06'7 7.1
2015-Mar-27 16:33N 49°34' W 000°12'1110.6
2015-Mar-27 15:33N 49°45' W 000°10'50 9.2
2015-Mar-27 10:06N 50°32' E 000°17'611.4
2015-Mar-27 09:33N 50°34' E 000°26'1211.8
2015-Mar-27 08:33N 50°39' E 000°44'1111.3
2015-Mar-27 07:33N 50°45' E 000°59'1210.5
2015-Mar-27 06:24N 50°52' E 001°14'8 9.7
2015-Mar-27 05:34N 50°58' E 001°23'9 8.7
2015-Mar-27 04:33N 51°04' E 001°33'7 7.2
2015-Mar-27 03:33N 51°04' E 001°44'7 7.2
2015-Mar-27 02:33N 51°02' E 001°55'8 8.4
2015-Mar-27 01:33N 51°03' E 002°08'8 7.2
2015-Mar-27 00:31N 51°03' E 002°20'2 1.8
2015-Mar-26 23:28N 51°03' E 002°18'0 0.3
2015-Mar-26 22:17N 51°03' E 002°17'0 0.2
2015-Mar-26 21:32N 51°03' E 002°17'0 0.0
2015-Mar-26 20:29N 51°03' E 002°17'0 0.0
2015-Mar-26 19:32N 51°03' E 002°17'0 0.0
2015-Mar-26 18:32N 51°03' E 002°17'0 0.0
2015-Mar-26 17:29N 51°03' E 002°17'0 0.0
2015-Mar-26 16:32N 51°03' E 002°17'0 0.0
2015-Mar-26 15:17N 51°03' E 002°17'0 0.0
2015-Mar-26 14:32N 51°03' E 002°17'0 0.0
2015-Mar-26 13:20N 51°03' E 002°17'0 0.0
2015-Mar-26 12:08N 51°03' E 002°17'0 0.0
2015-Mar-26 11:26N 51°03' E 002°17'0 0.0
2015-Mar-26 10:23N 51°03' E 002°17'0 0.0
2015-Mar-26 09:29N 51°03' E 002°17'0 0.0
2015-Mar-26 08:32N 51°03' E 002°17'0 0.0
2015-Mar-26 07:23N 51°03' E 002°17'0 0.0
2015-Mar-26 06:32N 51°03' E 002°17'0 0.0
2015-Mar-26 05:29N 51°03' E 002°17'0 0.0
2015-Mar-26 04:29N 51°03' E 002°17'0 0.0
2015-Mar-26 03:17N 51°03' E 002°17'0 0.0
2015-Mar-26 02:21N 51°03' E 002°17'0 0.0
2015-Mar-26 01:32N 51°03' E 002°17'0 0.0
2015-Mar-26 00:32N 51°03' E 002°17'0 0.0
2015-Mar-25 23:32N 51°03' E 002°17'0 0.0
2015-Mar-25 22:32N 51°03' E 002°17'0 0.0
2015-Mar-25 21:23N 51°03' E 002°17'0 0.0
2015-Mar-25 20:32N 51°03' E 002°17'0 0.0
2015-Mar-25 19:32N 51°03' E 002°17'0 0.0
2015-Mar-25 18:32N 51°03' E 002°17'0 0.0
2015-Mar-25 17:32N 51°03' E 002°17'3 2.5
2015-Mar-25 16:32N 51°03' E 002°21'1111.4
2015-Mar-25 15:33N 51°03' E 002°03'9 9.4
2015-Mar-25 14:33N 51°02' E 001°48'8 7.6
2015-Mar-25 13:34N 50°59' E 001°37'297 7.4
2015-Mar-23 21:14N 47°15' W 003°21'1012.5
2015-Mar-23 20:29N 47°12' W 003°08'1112.3
2015-Mar-23 19:33N 47°09' W 002°51'31 2.7
2015-Mar-23 08:16N 47°18' W 002°08'0 0.0
2015-Mar-23 07:19N 47°18' W 002°08'0 0.0
2015-Mar-23 06:31N 47°18' W 002°08'  
Track history (hours):
 
Tides and Currents Weather Stations Pressure Air Temp Water Temp Dewpoint Dewpoint Depression Visibility Wind Speed Wind Dir Waves Ship Positions

Cfl Performer

Last reported at 2015-Mar-31 12:20 UTC. Time now 2015-Mar-31 12:38 UTC.
Position N 51°03' E 002°21'.

Length 117 m; draft 3.2 m.

Type: Cargo ship. MMSI: 244989000.

Date/timePositionNaut miles runAvg speedWind from/ knotsBaromVisibWave heightAir tempDewpointWater temp
2015-Mar-31 12:20N 51°03' E 002°21'0 0.0
2015-Mar-31 11:07N 51°03' E 002°21'0 0.0
2015-Mar-31 10:28N 51°03' E 002°21'0 0.0
2015-Mar-31 09:22N 51°03' E 002°21'0 0.0
2015-Mar-31 08:31N 51°03' E 002°21'0 0.0
2015-Mar-31 07:31N 51°03' E 002°21'0 0.0
2015-Mar-31 06:25N 51°03' E 002°21'0 0.0
2015-Mar-31 05:31N 51°03' E 002°21'0 0.0
2015-Mar-31 04:28N 51°03' E 002°21'0 0.0
2015-Mar-31 03:22N 51°03' E 002°21'0 0.0
2015-Mar-31 02:31N 51°03' E 002°21'0 0.0
2015-Mar-31 01:28N 51°03' E 002°21'0 0.0
2015-Mar-31 00:25N 51°03' E 002°21'0 0.0
2015-Mar-30 23:28N 51°03' E 002°21'0 0.0
2015-Mar-30 22:32N 51°03' E 002°21'0 0.0
2015-Mar-30 21:25N 51°03' E 002°21'0 0.0
2015-Mar-30 20:31N 51°03' E 002°21'0 0.0
2015-Mar-30 19:25N 51°03' E 002°21'0 0.0
2015-Mar-30 18:22N 51°03' E 002°21'0 0.0
2015-Mar-30 17:28N 51°03' E 002°21'0 0.0
2015-Mar-30 16:32N 51°03' E 002°21'0 0.0
2015-Mar-30 15:28N 51°03' E 002°21'0 0.0
2015-Mar-30 14:31N 51°03' E 002°21'0 0.0
2015-Mar-30 13:25N 51°03' E 002°21'0 0.0
2015-Mar-30 12:13N 51°03' E 002°21'0 0.0
2015-Mar-30 11:31N 51°03' E 002°21'0 0.0
2015-Mar-30 10:31N 51°03' E 002°21'0 0.0
2015-Mar-30 09:31N 51°03' E 002°21'0 0.0
2015-Mar-30 08:25N 51°03' E 002°21'0 0.0
2015-Mar-30 07:25N 51°03' E 002°21'0 0.0
2015-Mar-30 06:25N 51°03' E 002°21'0 0.0
2015-Mar-30 05:31N 51°03' E 002°21'0 0.0
2015-Mar-30 04:20N 51°03' E 002°21'0 0.0
2015-Mar-30 03:28N 51°03' E 002°21'0 0.0
2015-Mar-30 02:13N 51°03' E 002°21'0 0.0
2015-Mar-30 01:25N 51°03' E 002°21'0 0.0
2015-Mar-30 00:31N 51°03' E 002°21'0 0.0
2015-Mar-29 22:28N 51°03' E 002°21'0 0.0
2015-Mar-29 20:31N 51°03' E 002°21'0 0.0
2015-Mar-29 19:31N 51°03' E 002°21'0 0.0
2015-Mar-29 18:19N 51°03' E 002°21'0 0.0
2015-Mar-29 17:31N 51°03' E 002°21'0 0.0
2015-Mar-29 16:31N 51°03' E 002°21'0 0.3
2015-Mar-29 15:32N 51°03' E 002°21'1 1.0
2015-Mar-29 14:33N 51°04' E 002°21'1211.5
2015-Mar-29 13:33N 51°03' E 002°03'1010.4
2015-Mar-29 12:33N 51°02' E 001°46'7 6.9
2015-Mar-29 11:34N 50°59' E 001°37'8 8.5
2015-Mar-29 10:33N 50°52' E 001°28'77 9.6
2015-Mar-29 02:28N 49°52' E 000°11'1213.3
2015-Mar-29 01:33N 49°42' E 000°01'1212.2
2015-Mar-29 00:33N 49°31' W 000°07'9 9.1
2015-Mar-28 23:33N 49°26' E 000°05'1312.9
2015-Mar-28 22:33N 49°27' E 000°24'1010.2
2015-Mar-28 21:34N 49°28' E 000°40'10 5.1
2015-Mar-28 19:32N 49°28' E 000°56'0 0.0
2015-Mar-28 04:19N 49°28' E 000°56'5 3.8
2015-Mar-28 03:05N 49°27' E 000°49'6 6.9
2015-Mar-28 02:11N 49°29' E 000°40'5 7.9
2015-Mar-28 01:33N 49°28' E 000°33'9 9.0
2015-Mar-28 00:33N 49°26' E 000°19'1110.8
2015-Mar-27 23:33N 49°27' E 000°03'6 5.7
2015-Mar-27 22:32N 49°29' W 000°06'0 0.1
2015-Mar-27 21:32N 49°28' W 000°06'0 0.0
2015-Mar-27 20:32N 49°28' W 000°06'0 0.0
2015-Mar-27 19:32N 49°28' W 000°06'0 0.0
2015-Mar-27 18:32N 49°28' W 000°06'0 0.1
2015-Mar-27 17:32N 49°28' W 000°06'7 7.1
2015-Mar-27 16:33N 49°34' W 000°12'1110.6
2015-Mar-27 15:33N 49°45' W 000°10'50 9.2
2015-Mar-27 10:06N 50°32' E 000°17'611.4
2015-Mar-27 09:33N 50°34' E 000°26'1211.8
2015-Mar-27 08:33N 50°39' E 000°44'1111.3
2015-Mar-27 07:33N 50°45' E 000°59'1210.5
2015-Mar-27 06:24N 50°52' E 001°14'8 9.7
2015-Mar-27 05:34N 50°58' E 001°23'9 8.7
2015-Mar-27 04:33N 51°04' E 001°33'7 7.2
2015-Mar-27 03:33N 51°04' E 001°44'7 7.2
2015-Mar-27 02:33N 51°02' E 001°55'8 8.4
2015-Mar-27 01:33N 51°03' E 002°08'8 7.2
2015-Mar-27 00:31N 51°03' E 002°20'2 1.8
2015-Mar-26 23:28N 51°03' E 002°18'0 0.3
2015-Mar-26 22:17N 51°03' E 002°17'0 0.2
2015-Mar-26 21:32N 51°03' E 002°17'0 0.0
2015-Mar-26 20:29N 51°03' E 002°17'0 0.0
2015-Mar-26 19:32N 51°03' E 002°17'0 0.0
2015-Mar-26 18:32N 51°03' E 002°17'0 0.0
2015-Mar-26 17:29N 51°03' E 002°17'0 0.0
2015-Mar-26 16:32N 51°03' E 002°17'0 0.0
2015-Mar-26 15:17N 51°03' E 002°17'0 0.0
2015-Mar-26 14:32N 51°03' E 002°17'0 0.0
2015-Mar-26 13:20N 51°03' E 002°17'0 0.0
2015-Mar-26 12:08N 51°03' E 002°17'0 0.0
2015-Mar-26 11:26N 51°03' E 002°17'0 0.0
2015-Mar-26 10:23N 51°03' E 002°17'0 0.0
2015-Mar-26 09:29N 51°03' E 002°17'0 0.0
2015-Mar-26 08:32N 51°03' E 002°17'0 0.0
2015-Mar-26 07:23N 51°03' E 002°17'0 0.0
2015-Mar-26 06:32N 51°03' E 002°17'0 0.0
2015-Mar-26 05:29N 51°03' E 002°17'0 0.0
2015-Mar-26 04:29N 51°03' E 002°17'0 0.0
2015-Mar-26 03:17N 51°03' E 002°17'0 0.0
2015-Mar-26 02:21N 51°03' E 002°17'0 0.0
2015-Mar-26 01:32N 51°03' E 002°17'0 0.0
2015-Mar-26 00:32N 51°03' E 002°17'0 0.0
2015-Mar-25 23:32N 51°03' E 002°17'0 0.0
2015-Mar-25 22:32N 51°03' E 002°17'0 0.0
2015-Mar-25 21:23N 51°03' E 002°17'0 0.0
2015-Mar-25 20:32N 51°03' E 002°17'0 0.0
2015-Mar-25 19:32N 51°03' E 002°17'0 0.0
2015-Mar-25 18:32N 51°03' E 002°17'0 0.0
2015-Mar-25 17:32N 51°03' E 002°17'3 2.5
2015-Mar-25 16:32N 51°03' E 002°21'1111.4
2015-Mar-25 15:33N 51°03' E 002°03'9 9.4
2015-Mar-25 14:33N 51°02' E 001°48'8 7.6
2015-Mar-25 13:34N 50°59' E 001°37'297 7.4
2015-Mar-23 21:14N 47°15' W 003°21'1012.5
2015-Mar-23 20:29N 47°12' W 003°08'1112.3
2015-Mar-23 19:33N 47°09' W 002°51'31 2.7
2015-Mar-23 08:16N 47°18' W 002°08'0 0.0
2015-Mar-23 07:19N 47°18' W 002°08'0 0.0
2015-Mar-23 06:31N 47°18' W 002°08'  

Dump ship's entire track history